This is the latest recevied weather packets stored in our database for station/object JQ1YUX-13. If no packets are shown the sender has not sent any weather packets the latest 10 day(s).
| Time | Temp. | Humidity | Pressure | Rain* | Wind** | Luminosity | Snow |
|---|---|---|---|---|---|---|---|
| 1777603385 | 13.33° C | 88% | 1000.8 hPa | 1.52 mm | - | - | - |
| 1777602485 | 13.33° C | 88% | 1001.5 hPa | 1.27 mm | - | - | - |
| 1777601585 | 13.33° C | 88% | 1002.2 hPa | 2.29 mm | - | - | - |
| 1777600686 | 13.33° C | 88% | 1002.2 hPa | 2.03 mm | - | - | - |
| 1777586286 | 11.11° C | 89% | 1009.3 hPa | 4.06 mm | - | - | - |
| 1777582685 | 11.67° C | 90% | 1010.8 hPa | 0.25 mm | - | - | - |
| 1777578523 | 11.11° C | 90% | 1012.1 hPa | 2.29 mm | - | - | - |
| 1777566484 | 11.67° C | 90% | 1015.9 hPa | 0.51 mm | - | - | - |
| 1777563786 | 11.67° C | 90% | 1016.8 hPa | 0.25 mm | - | - | - |
| 1777552985 | 13.33° C | 87% | 1019.9 hPa | 0 mm | - | - | - |
| 1777548485 | 15.56° C | 77% | 1020.1 hPa | 0 mm | - | - | - |
| 1777544886 | 16.11° C | 74% | 1020 hPa | 0 mm | - | - | - |
| 1777541284 | 16.11° C | 72% | 1019.7 hPa | 0 mm | - | - | - |
| 1777538584 | 16.11° C | 70% | 1019.5 hPa | 0 mm | - | - | - |
| 1777534984 | 16.67° C | 68% | 1019.7 hPa | 0 mm | - | - | - |
| 1777534085 | 16.67° C | 67% | 1019.8 hPa | 0 mm | - | - | - |
| 1777533184 | 16.67° C | 65% | 1020.1 hPa | 0 mm | - | - | - |
| 1777530485 | 16.67° C | 67% | 1020.2 hPa | 0 mm | - | - | - |
| 1777529584 | 16.67° C | 67% | 1020.3 hPa | 0 mm | - | - | - |
| 1777528684 | 16.67° C | 65% | 1020.2 hPa | 0 mm | - | - | - |
| 1777527785 | 16.67° C | 67% | 1020.3 hPa | 0 mm | - | - | - |
| 1777526885 | 16.67° C | 66% | 1020.7 hPa | 0 mm | - | - | - |
| 1777525986 | 16.67° C | 67% | 1020.9 hPa | 0 mm | - | - | - |
| 1777525084 | 16.67° C | 69% | 1020.8 hPa | 0 mm | - | - | - |
| 1777524185 | 16.67° C | 72% | 1020.9 hPa | 0 mm | - | - | - |
* Rain latest hour (hover to see other rain measurements)
** Current wind speed in m/s (hover to see current wind gust speed)